sensor_id;sensor_type;location;lat;lon;timestamp;P1;durP1;ratioP1;P2;durP2;ratioP2
70997;SDS011;58663;52.040;4.634;2022-10-31T00:00:15;5.28;;;3.15;;
70997;SDS011;58663;52.040;4.634;2022-10-31T00:02:41;4.63;;;3.38;;
70997;SDS011;58663;52.040;4.634;2022-10-31T00:05:06;7.40;;;3.00;;
70997;SDS011;58663;52.040;4.634;2022-10-31T00:07:32;5.28;;;3.05;;
70997;SDS011;58663;52.040;4.634;2022-10-31T00:09:57;4.90;;;3.00;;
70997;SDS011;58663;52.040;4.634;2022-10-31T00:12:22;4.68;;;2.55;;
70997;SDS011;58663;52.040;4.634;2022-10-31T00:14:48;5.30;;;2.70;;
70997;SDS011;58663;52.040;4.634;2022-10-31T00:17:13;3.67;;;2.67;;
70997;SDS011;58663;52.040;4.634;2022-10-31T00:19:38;5.38;;;3.00;;
70997;SDS011;58663;52.040;4.634;2022-10-31T00:22:04;7.00;;;2.85;;
70997;SDS011;58663;52.040;4.634;2022-10-31T00:24:29;7.28;;;3.20;;
70997;SDS011;58663;52.040;4.634;2022-10-31T00:26:54;6.13;;;3.33;;
70997;SDS011;58663;52.040;4.634;2022-10-31T00:29:20;8.23;;;3.00;;
70997;SDS011;58663;52.040;4.634;2022-10-31T00:31:45;5.35;;;3.17;;
70997;SDS011;58663;52.040;4.634;2022-10-31T00:34:10;5.57;;;3.22;;
70997;SDS011;58663;52.040;4.634;2022-10-31T00:36:36;4.60;;;2.80;;
70997;SDS011;58663;52.040;4.634;2022-10-31T00:39:01;6.28;;;2.88;;
70997;SDS011;58663;52.040;4.634;2022-10-31T00:41:26;4.05;;;2.67;;
70997;SDS011;58663;52.040;4.634;2022-10-31T00:43:52;5.15;;;3.13;;
70997;SDS011;58663;52.040;4.634;2022-10-31T00:46:17;11.10;;;3.10;;
70997;SDS011;58663;52.040;4.634;2022-10-31T00:48:42;5.13;;;3.15;;
70997;SDS011;58663;52.040;4.634;2022-10-31T00:51:08;6.03;;;3.15;;
70997;SDS011;58663;52.040;4.634;2022-10-31T00:53:33;5.88;;;2.70;;
70997;SDS011;58663;52.040;4.634;2022-10-31T00:55:59;3.75;;;2.78;;
70997;SDS011;58663;52.040;4.634;2022-10-31T00:58:24;4.45;;;2.95;;
70997;SDS011;58663;52.040;4.634;2022-10-31T01:00:50;6.00;;;3.42;;
70997;SDS011;58663;52.040;4.634;2022-10-31T01:03:25;6.05;;;2.88;;
70997;SDS011;58663;52.040;4.634;2022-10-31T01:08:21;8.65;;;3.13;;
70997;SDS011;58663;52.040;4.634;2022-10-31T01:10:46;6.22;;;3.25;;
70997;SDS011;58663;52.040;4.634;2022-10-31T01:13:11;6.40;;;3.22;;
70997;SDS011;58663;52.040;4.634;2022-10-31T01:15:36;9.00;;;3.88;;
70997;SDS011;58663;52.040;4.634;2022-10-31T01:18:02;7.38;;;3.53;;
70997;SDS011;58663;52.040;4.634;2022-10-31T01:20:27;7.05;;;3.80;;
70997;SDS011;58663;52.040;4.634;2022-10-31T01:22:52;12.27;;;4.95;;
70997;SDS011;58663;52.040;4.634;2022-10-31T01:25:18;10.73;;;4.78;;
70997;SDS011;58663;52.040;4.634;2022-10-31T01:27:43;8.65;;;4.47;;
70997;SDS011;58663;52.040;4.634;2022-10-31T01:30:09;6.90;;;4.13;;
70997;SDS011;58663;52.040;4.634;2022-10-31T01:32:34;8.20;;;4.72;;
70997;SDS011;58663;52.040;4.634;2022-10-31T01:35:00;9.95;;;3.97;;
70997;SDS011;58663;52.040;4.634;2022-10-31T01:37:25;6.80;;;4.07;;
70997;SDS011;58663;52.040;4.634;2022-10-31T01:39:51;10.05;;;4.78;;
70997;SDS011;58663;52.040;4.634;2022-10-31T01:42:18;9.82;;;4.45;;
70997;SDS011;58663;52.040;4.634;2022-10-31T01:44:49;8.73;;;4.32;;
70997;SDS011;58663;52.040;4.634;2022-10-31T01:47:26;10.05;;;5.13;;
70997;SDS011;58663;52.040;4.634;2022-10-31T01:50:21;7.88;;;4.63;;
70997;SDS011;58663;52.040;4.634;2022-10-31T01:52:57;7.55;;;4.47;;
70997;SDS011;58663;52.040;4.634;2022-10-31T01:55:26;10.32;;;5.05;;
70997;SDS011;58663;52.040;4.634;2022-10-31T01:57:55;8.00;;;4.22;;
70997;SDS011;58663;52.040;4.634;2022-10-31T02:00:25;8.82;;;5.03;;
70997;SDS011;58663;52.040;4.634;2022-10-31T02:02:50;11.25;;;4.70;;
70997;SDS011;58663;52.040;4.634;2022-10-31T02:05:17;12.07;;;5.15;;
70997;SDS011;58663;52.040;4.634;2022-10-31T02:07:55;10.85;;;5.85;;
70997;SDS011;58663;52.040;4.634;2022-10-31T02:10:23;10.75;;;5.53;;
70997;SDS011;58663;52.040;4.634;2022-10-31T02:12:50;11.27;;;5.55;;
70997;SDS011;58663;52.040;4.634;2022-10-31T02:15:17;10.38;;;5.93;;
70997;SDS011;58663;52.040;4.634;2022-10-31T02:17:42;14.85;;;6.18;;
70997;SDS011;58663;52.040;4.634;2022-10-31T02:20:12;13.65;;;6.00;;
70997;SDS011;58663;52.040;4.634;2022-10-31T02:36:46;12.82;;;6.70;;
70997;SDS011;58663;52.040;4.634;2022-10-31T02:39:28;13.70;;;7.30;;
70997;SDS011;58663;52.040;4.634;2022-10-31T02:47:17;14.90;;;7.95;;
70997;SDS011;58663;52.040;4.634;2022-10-31T02:49:53;12.05;;;7.28;;
70997;SDS011;58663;52.040;4.634;2022-10-31T02:52:28;15.02;;;7.93;;
70997;SDS011;58663;52.040;4.634;2022-10-31T02:54:57;16.00;;;7.68;;
70997;SDS011;58663;52.040;4.634;2022-10-31T02:57:24;14.93;;;8.05;;
70997;SDS011;58663;52.040;4.634;2022-10-31T02:59:53;12.88;;;7.50;;
70997;SDS011;58663;52.040;4.634;2022-10-31T03:08:23;13.40;;;7.93;;
70997;SDS011;58663;52.040;4.634;2022-10-31T03:13:49;16.67;;;9.00;;
70997;SDS011;58663;52.040;4.634;2022-10-31T03:19:58;21.92;;;10.45;;
70997;SDS011;58663;52.040;4.634;2022-10-31T03:24:43;22.15;;;10.80;;
70997;SDS011;58663;52.040;4.634;2022-10-31T03:27:09;21.73;;;10.27;;
70997;SDS011;58663;52.040;4.634;2022-10-31T03:29:37;19.48;;;11.15;;
70997;SDS011;58663;52.040;4.634;2022-10-31T03:34:37;24.08;;;11.52;;
70997;SDS011;58663;52.040;4.634;2022-10-31T03:37:06;25.02;;;12.77;;
70997;SDS011;58663;52.040;4.634;2022-10-31T03:39:33;22.08;;;12.32;;
70997;SDS011;58663;52.040;4.634;2022-10-31T03:42:06;27.50;;;13.48;;
70997;SDS011;58663;52.040;4.634;2022-10-31T03:44:34;22.25;;;11.95;;
70997;SDS011;58663;52.040;4.634;2022-10-31T03:47:00;25.83;;;12.75;;
70997;SDS011;58663;52.040;4.634;2022-10-31T03:49:27;21.85;;;12.15;;
70997;SDS011;58663;52.040;4.634;2022-10-31T03:52:02;23.15;;;13.15;;
70997;SDS011;58663;52.040;4.634;2022-10-31T03:54:45;25.92;;;13.02;;
70997;SDS011;58663;52.040;4.634;2022-10-31T03:57:23;34.10;;;12.82;;
70997;SDS011;58663;52.040;4.634;2022-10-31T03:59:59;28.17;;;13.50;;
70997;SDS011;58663;52.040;4.634;2022-10-31T04:02:30;27.30;;;13.20;;
70997;SDS011;58663;52.040;4.634;2022-10-31T04:04:57;31.60;;;13.98;;
70997;SDS011;58663;52.040;4.634;2022-10-31T04:07:25;28.45;;;14.80;;
70997;SDS011;58663;52.040;4.634;2022-10-31T04:09:53;33.28;;;14.30;;
70997;SDS011;58663;52.040;4.634;2022-10-31T04:12:19;26.67;;;14.48;;
70997;SDS011;58663;52.040;4.634;2022-10-31T04:14:46;31.23;;;14.88;;
70997;SDS011;58663;52.040;4.634;2022-10-31T04:17:13;29.90;;;15.07;;
70997;SDS011;58663;52.040;4.634;2022-10-31T04:19:40;24.38;;;14.35;;
70997;SDS011;58663;52.040;4.634;2022-10-31T04:22:06;25.27;;;14.60;;
70997;SDS011;58663;52.040;4.634;2022-10-31T04:24:31;26.50;;;14.95;;
70997;SDS011;58663;52.040;4.634;2022-10-31T04:26:56;27.85;;;14.05;;
70997;SDS011;58663;52.040;4.634;2022-10-31T04:29:22;25.35;;;14.60;;
70997;SDS011;58663;52.040;4.634;2022-10-31T04:31:47;25.83;;;14.75;;
70997;SDS011;58663;52.040;4.634;2022-10-31T04:34:12;29.38;;;14.27;;
70997;SDS011;58663;52.040;4.634;2022-10-31T04:36:38;28.10;;;13.88;;
70997;SDS011;58663;52.040;4.634;2022-10-31T04:39:03;28.23;;;14.02;;
70997;SDS011;58663;52.040;4.634;2022-10-31T04:41:28;25.42;;;14.32;;
70997;SDS011;58663;52.040;4.634;2022-10-31T04:43:54;27.10;;;14.55;;
70997;SDS011;58663;52.040;4.634;2022-10-31T04:46:19;29.55;;;14.43;;
70997;SDS011;58663;52.040;4.634;2022-10-31T04:48:44;29.42;;;13.95;;
70997;SDS011;58663;52.040;4.634;2022-10-31T04:51:10;24.85;;;14.20;;
70997;SDS011;58663;52.040;4.634;2022-10-31T04:53:35;26.73;;;13.93;;
70997;SDS011;58663;52.040;4.634;2022-10-31T04:56:00;28.17;;;15.68;;
70997;SDS011;58663;52.040;4.634;2022-10-31T04:58:26;29.80;;;14.90;;
70997;SDS011;58663;52.040;4.634;2022-10-31T05:00:52;28.05;;;15.65;;
70997;SDS011;58663;52.040;4.634;2022-10-31T05:03:18;27.77;;;14.57;;
70997;SDS011;58663;52.040;4.634;2022-10-31T05:05:44;26.55;;;14.38;;
70997;SDS011;58663;52.040;4.634;2022-10-31T05:08:09;28.55;;;15.57;;
70997;SDS011;58663;52.040;4.634;2022-10-31T05:10:34;28.83;;;15.90;;
70997;SDS011;58663;52.040;4.634;2022-10-31T05:13:00;25.45;;;14.73;;
70997;SDS011;58663;52.040;4.634;2022-10-31T05:15:27;32.88;;;15.93;;
70997;SDS011;58663;52.040;4.634;2022-10-31T05:17:53;34.55;;;16.80;;
70997;SDS011;58663;52.040;4.634;2022-10-31T05:20:20;30.17;;;16.67;;
70997;SDS011;58663;52.040;4.634;2022-10-31T05:22:48;28.92;;;15.48;;
70997;SDS011;58663;52.040;4.634;2022-10-31T05:25:15;31.17;;;18.33;;
70997;SDS011;58663;52.040;4.634;2022-10-31T05:27:41;25.92;;;16.52;;
70997;SDS011;58663;52.040;4.634;2022-10-31T05:30:08;29.77;;;16.92;;
70997;SDS011;58663;52.040;4.634;2022-10-31T05:32:38;30.63;;;17.38;;
70997;SDS011;58663;52.040;4.634;2022-10-31T05:35:08;29.83;;;17.63;;
70997;SDS011;58663;52.040;4.634;2022-10-31T05:37:34;26.58;;;17.23;;
70997;SDS011;58663;52.040;4.634;2022-10-31T05:40:00;36.80;;;17.52;;
70997;SDS011;58663;52.040;4.634;2022-10-31T05:42:26;34.55;;;17.05;;
70997;SDS011;58663;52.040;4.634;2022-10-31T05:44:51;30.00;;;17.38;;
70997;SDS011;58663;52.040;4.634;2022-10-31T05:47:17;29.50;;;17.08;;
70997;SDS011;58663;52.040;4.634;2022-10-31T05:49:42;30.30;;;17.35;;
70997;SDS011;58663;52.040;4.634;2022-10-31T05:52:07;33.17;;;17.00;;
70997;SDS011;58663;52.040;4.634;2022-10-31T05:54:32;34.53;;;18.88;;
70997;SDS011;58663;52.040;4.634;2022-10-31T05:56:58;33.45;;;17.80;;
70997;SDS011;58663;52.040;4.634;2022-10-31T05:59:23;41.33;;;19.20;;
70997;SDS011;58663;52.040;4.634;2022-10-31T06:01:48;35.45;;;18.35;;
70997;SDS011;58663;52.040;4.634;2022-10-31T06:04:14;36.50;;;18.60;;
70997;SDS011;58663;52.040;4.634;2022-10-31T06:06:39;38.55;;;19.80;;
70997;SDS011;58663;52.040;4.634;2022-10-31T06:09:04;37.47;;;19.42;;
70997;SDS011;58663;52.040;4.634;2022-10-31T06:11:30;38.33;;;19.33;;
70997;SDS011;58663;52.040;4.634;2022-10-31T06:13:55;38.45;;;19.92;;
70997;SDS011;58663;52.040;4.634;2022-10-31T06:16:20;34.35;;;19.88;;
70997;SDS011;58663;52.040;4.634;2022-10-31T06:18:46;47.17;;;21.83;;
70997;SDS011;58663;52.040;4.634;2022-10-31T06:21:12;43.45;;;19.15;;
70997;SDS011;58663;52.040;4.634;2022-10-31T06:23:37;45.17;;;21.08;;
70997;SDS011;58663;52.040;4.634;2022-10-31T06:26:02;53.72;;;21.42;;
70997;SDS011;58663;52.040;4.634;2022-10-31T06:28:28;49.50;;;20.65;;
70997;SDS011;58663;52.040;4.634;2022-10-31T06:30:53;47.50;;;20.75;;
70997;SDS011;58663;52.040;4.634;2022-10-31T06:33:19;44.40;;;21.08;;
70997;SDS011;58663;52.040;4.634;2022-10-31T06:35:44;52.00;;;21.42;;
70997;SDS011;58663;52.040;4.634;2022-10-31T06:38:11;50.20;;;22.35;;
70997;SDS011;58663;52.040;4.634;2022-10-31T06:40:37;50.78;;;21.17;;
70997;SDS011;58663;52.040;4.634;2022-10-31T06:43:02;56.38;;;22.42;;
70997;SDS011;58663;52.040;4.634;2022-10-31T06:45:28;55.25;;;23.02;;
70997;SDS011;58663;52.040;4.634;2022-10-31T06:47:53;52.42;;;21.00;;
70997;SDS011;58663;52.040;4.634;2022-10-31T06:50:20;48.63;;;21.52;;
70997;SDS011;58663;52.040;4.634;2022-10-31T06:52:52;52.22;;;22.23;;
70997;SDS011;58663;52.040;4.634;2022-10-31T06:55:18;54.35;;;22.08;;
70997;SDS011;58663;52.040;4.634;2022-10-31T06:57:49;52.88;;;23.30;;
70997;SDS011;58663;52.040;4.634;2022-10-31T07:00:15;48.90;;;21.58;;
70997;SDS011;58663;52.040;4.634;2022-10-31T07:02:41;46.97;;;22.02;;
70997;SDS011;58663;52.040;4.634;2022-10-31T07:05:06;57.33;;;22.52;;
70997;SDS011;58663;52.040;4.634;2022-10-31T07:07:32;51.63;;;21.85;;
70997;SDS011;58663;52.040;4.634;2022-10-31T07:09:57;51.95;;;23.35;;
70997;SDS011;58663;52.040;4.634;2022-10-31T07:12:22;50.95;;;21.15;;
70997;SDS011;58663;52.040;4.634;2022-10-31T07:14:48;61.10;;;23.35;;
70997;SDS011;58663;52.040;4.634;2022-10-31T07:17:13;49.63;;;21.55;;
70997;SDS011;58663;52.040;4.634;2022-10-31T07:19:38;51.60;;;21.42;;
70997;SDS011;58663;52.040;4.634;2022-10-31T07:22:04;49.00;;;21.80;;
70997;SDS011;58663;52.040;4.634;2022-10-31T07:24:29;53.20;;;22.40;;
70997;SDS011;58663;52.040;4.634;2022-10-31T07:26:55;50.45;;;21.05;;
70997;SDS011;58663;52.040;4.634;2022-10-31T07:29:20;57.85;;;22.95;;
70997;SDS011;58663;52.040;4.634;2022-10-31T07:31:46;51.65;;;21.25;;
70997;SDS011;58663;52.040;4.634;2022-10-31T07:34:11;49.03;;;22.02;;
70997;SDS011;58663;52.040;4.634;2022-10-31T07:36:37;42.05;;;21.50;;
70997;SDS011;58663;52.040;4.634;2022-10-31T07:39:02;48.17;;;22.27;;
70997;SDS011;58663;52.040;4.634;2022-10-31T07:41:27;49.70;;;21.65;;
70997;SDS011;58663;52.040;4.634;2022-10-31T07:43:53;45.75;;;20.10;;
70997;SDS011;58663;52.040;4.634;2022-10-31T07:46:18;46.47;;;20.17;;
70997;SDS011;58663;52.040;4.634;2022-10-31T07:48:44;44.45;;;20.13;;
70997;SDS011;58663;52.040;4.634;2022-10-31T07:51:09;41.85;;;20.52;;
70997;SDS011;58663;52.040;4.634;2022-10-31T07:53:34;46.00;;;22.00;;
70997;SDS011;58663;52.040;4.634;2022-10-31T07:56:00;40.75;;;20.95;;
70997;SDS011;58663;52.040;4.634;2022-10-31T07:58:25;45.72;;;21.33;;
70997;SDS011;58663;52.040;4.634;2022-10-31T08:00:50;46.72;;;21.88;;
70997;SDS011;58663;52.040;4.634;2022-10-31T08:03:16;44.78;;;22.15;;
70997;SDS011;58663;52.040;4.634;2022-10-31T08:05:43;46.30;;;22.55;;
70997;SDS011;58663;52.040;4.634;2022-10-31T08:08:10;44.25;;;20.88;;
70997;SDS011;58663;52.040;4.634;2022-10-31T08:10:36;42.17;;;20.90;;
70997;SDS011;58663;52.040;4.634;2022-10-31T08:13:06;45.65;;;22.20;;
70997;SDS011;58663;52.040;4.634;2022-10-31T08:15:32;44.22;;;20.50;;
70997;SDS011;58663;52.040;4.634;2022-10-31T08:18:01;40.17;;;21.02;;
70997;SDS011;58663;52.040;4.634;2022-10-31T08:20:27;38.83;;;19.30;;
70997;SDS011;58663;52.040;4.634;2022-10-31T08:22:53;40.58;;;20.52;;
70997;SDS011;58663;52.040;4.634;2022-10-31T08:25:19;39.10;;;20.15;;
70997;SDS011;58663;52.040;4.634;2022-10-31T08:27:48;38.45;;;19.98;;
70997;SDS011;58663;52.040;4.634;2022-10-31T08:30:14;50.38;;;21.38;;
70997;SDS011;58663;52.040;4.634;2022-10-31T08:32:40;43.95;;;21.80;;
70997;SDS011;58663;52.040;4.634;2022-10-31T08:35:05;44.33;;;22.30;;
70997;SDS011;58663;52.040;4.634;2022-10-31T08:37:31;42.83;;;21.25;;
70997;SDS011;58663;52.040;4.634;2022-10-31T08:39:56;50.88;;;22.70;;
70997;SDS011;58663;52.040;4.634;2022-10-31T08:42:21;46.05;;;22.00;;
70997;SDS011;58663;52.040;4.634;2022-10-31T08:44:47;41.22;;;21.40;;
70997;SDS011;58663;52.040;4.634;2022-10-31T08:47:12;44.97;;;22.20;;
70997;SDS011;58663;52.040;4.634;2022-10-31T08:49:37;42.58;;;21.40;;
70997;SDS011;58663;52.040;4.634;2022-10-31T08:52:03;45.28;;;20.73;;
70997;SDS011;58663;52.040;4.634;2022-10-31T08:54:28;43.03;;;20.27;;
70997;SDS011;58663;52.040;4.634;2022-10-31T08:56:54;50.30;;;21.58;;
70997;SDS011;58663;52.040;4.634;2022-10-31T08:59:20;42.45;;;22.45;;
70997;SDS011;58663;52.040;4.634;2022-10-31T09:01:45;37.55;;;20.63;;
70997;SDS011;58663;52.040;4.634;2022-10-31T09:04:11;44.70;;;20.65;;
70997;SDS011;58663;52.040;4.634;2022-10-31T09:06:36;41.47;;;22.15;;
70997;SDS011;58663;52.040;4.634;2022-10-31T09:09:01;37.38;;;20.67;;
70997;SDS011;58663;52.040;4.634;2022-10-31T09:11:27;37.03;;;19.33;;
70997;SDS011;58663;52.040;4.634;2022-10-31T09:13:52;38.38;;;19.77;;
70997;SDS011;58663;52.040;4.634;2022-10-31T09:16:17;34.08;;;18.70;;
70997;SDS011;58663;52.040;4.634;2022-10-31T09:18:43;36.42;;;18.88;;
70997;SDS011;58663;52.040;4.634;2022-10-31T09:21:08;32.85;;;18.23;;
70997;SDS011;58663;52.040;4.634;2022-10-31T09:23:34;32.42;;;17.90;;
70997;SDS011;58663;52.040;4.634;2022-10-31T09:25:59;30.55;;;15.60;;
70997;SDS011;58663;52.040;4.634;2022-10-31T09:28:26;27.20;;;16.05;;
70997;SDS011;58663;52.040;4.634;2022-10-31T09:30:52;33.63;;;16.58;;
70997;SDS011;58663;52.040;4.634;2022-10-31T09:33:18;26.15;;;14.95;;
70997;SDS011;58663;52.040;4.634;2022-10-31T09:35:43;29.17;;;15.55;;
70997;SDS011;58663;52.040;4.634;2022-10-31T09:38:12;31.30;;;16.02;;
70997;SDS011;58663;52.040;4.634;2022-10-31T09:40:42;28.88;;;15.63;;
70997;SDS011;58663;52.040;4.634;2022-10-31T09:51:25;34.75;;;17.23;;
70997;SDS011;58663;52.040;4.634;2022-10-31T09:53:57;33.53;;;16.98;;
70997;SDS011;58663;52.040;4.634;2022-10-31T09:56:27;28.13;;;16.85;;
70997;SDS011;58663;52.040;4.634;2022-10-31T09:58:57;31.00;;;16.10;;
70997;SDS011;58663;52.040;4.634;2022-10-31T10:06:53;26.80;;;16.00;;
70997;SDS011;58663;52.040;4.634;2022-10-31T10:09:24;32.45;;;17.52;;
70997;SDS011;58663;52.040;4.634;2022-10-31T10:14:52;28.58;;;15.95;;
70997;SDS011;58663;52.040;4.634;2022-10-31T10:20:08;35.78;;;19.20;;
70997;SDS011;58663;52.040;4.634;2022-10-31T10:33:11;29.67;;;14.85;;
70997;SDS011;58663;52.040;4.634;2022-10-31T10:35:42;26.70;;;15.40;;
70997;SDS011;58663;52.040;4.634;2022-10-31T10:41:17;24.42;;;14.88;;
70997;SDS011;58663;52.040;4.634;2022-10-31T10:43:45;36.13;;;15.35;;
70997;SDS011;58663;52.040;4.634;2022-10-31T10:59:44;31.00;;;16.15;;
70997;SDS011;58663;52.040;4.634;2022-10-31T11:02:16;25.02;;;14.77;;
70997;SDS011;58663;52.040;4.634;2022-10-31T11:04:43;27.20;;;15.13;;
70997;SDS011;58663;52.040;4.634;2022-10-31T11:07:10;28.30;;;15.20;;
70997;SDS011;58663;52.040;4.634;2022-10-31T11:09:36;23.85;;;14.23;;
70997;SDS011;58663;52.040;4.634;2022-10-31T11:14:52;23.55;;;13.73;;
70997;SDS011;58663;52.040;4.634;2022-10-31T11:17:26;23.30;;;13.07;;
70997;SDS011;58663;52.040;4.634;2022-10-31T11:22:39;27.50;;;13.13;;
70997;SDS011;58663;52.040;4.634;2022-10-31T11:25:24;23.38;;;13.88;;
70997;SDS011;58663;52.040;4.634;2022-10-31T11:28:00;23.35;;;14.07;;
70997;SDS011;58663;52.040;4.634;2022-10-31T11:30:30;23.10;;;12.70;;
70997;SDS011;58663;52.040;4.634;2022-10-31T11:32:56;26.25;;;14.05;;
70997;SDS011;58663;52.040;4.634;2022-10-31T11:35:22;27.23;;;13.60;;
70997;SDS011;58663;52.040;4.634;2022-10-31T11:37:49;23.27;;;14.52;;
70997;SDS011;58663;52.040;4.634;2022-10-31T11:40:19;22.88;;;14.18;;
70997;SDS011;58663;52.040;4.634;2022-10-31T11:42:51;22.88;;;13.95;;
70997;SDS011;58663;52.040;4.634;2022-10-31T11:45:19;26.77;;;14.02;;
70997;SDS011;58663;52.040;4.634;2022-10-31T11:47:59;31.67;;;15.20;;
70997;SDS011;58663;52.040;4.634;2022-10-31T11:50:47;25.98;;;13.88;;
70997;SDS011;58663;52.040;4.634;2022-10-31T11:53:15;26.35;;;14.65;;
70997;SDS011;58663;52.040;4.634;2022-10-31T11:55:59;22.73;;;14.50;;
70997;SDS011;58663;52.040;4.634;2022-10-31T11:58:29;27.88;;;14.57;;
70997;SDS011;58663;52.040;4.634;2022-10-31T12:00:55;26.60;;;14.65;;
70997;SDS011;58663;52.040;4.634;2022-10-31T12:06:06;26.63;;;15.30;;
70997;SDS011;58663;52.040;4.634;2022-10-31T12:08:35;26.90;;;14.77;;
70997;SDS011;58663;52.040;4.634;2022-10-31T12:13:55;28.65;;;14.65;;
70997;SDS011;58663;52.040;4.634;2022-10-31T12:16:37;26.50;;;13.95;;
70997;SDS011;58663;52.040;4.634;2022-10-31T12:24:39;27.10;;;15.05;;
70997;SDS011;58663;52.040;4.634;2022-10-31T12:30:17;25.33;;;14.82;;
70997;SDS011;58663;52.040;4.634;2022-10-31T12:35:21;21.83;;;13.73;;
70997;SDS011;58663;52.040;4.634;2022-10-31T12:38:03;28.30;;;15.50;;
70997;SDS011;58663;52.040;4.634;2022-10-31T12:50:58;30.80;;;17.13;;
70997;SDS011;58663;52.040;4.634;2022-10-31T13:01:23;35.83;;;18.30;;
70997;SDS011;58663;52.040;4.634;2022-10-31T13:06:36;37.55;;;18.30;;
70997;SDS011;58663;52.040;4.634;2022-10-31T13:09:08;36.85;;;18.73;;
70997;SDS011;58663;52.040;4.634;2022-10-31T13:11:38;35.47;;;18.65;;
70997;SDS011;58663;52.040;4.634;2022-10-31T13:16:35;36.78;;;19.45;;
70997;SDS011;58663;52.040;4.634;2022-10-31T13:19:08;31.10;;;18.08;;
70997;SDS011;58663;52.040;4.634;2022-10-31T13:21:49;33.90;;;18.63;;
70997;SDS011;58663;52.040;4.634;2022-10-31T13:24:21;37.90;;;18.70;;
70997;SDS011;58663;52.040;4.634;2022-10-31T13:26:50;40.15;;;18.55;;
70997;SDS011;58663;52.040;4.634;2022-10-31T13:32:05;38.90;;;19.08;;
70997;SDS011;58663;52.040;4.634;2022-10-31T13:34:40;42.80;;;19.52;;
70997;SDS011;58663;52.040;4.634;2022-10-31T13:45:14;39.45;;;20.27;;
70997;SDS011;58663;52.040;4.634;2022-10-31T13:47:41;40.55;;;19.02;;
70997;SDS011;58663;52.040;4.634;2022-10-31T13:53:03;39.10;;;19.02;;
70997;SDS011;58663;52.040;4.634;2022-10-31T13:58:40;39.42;;;20.23;;
70997;SDS011;58663;52.040;4.634;2022-10-31T14:01:19;39.65;;;21.13;;
70997;SDS011;58663;52.040;4.634;2022-10-31T14:03:46;38.22;;;20.63;;
70997;SDS011;58663;52.040;4.634;2022-10-31T14:06:13;48.15;;;21.80;;
70997;SDS011;58663;52.040;4.634;2022-10-31T14:08:40;41.45;;;21.90;;
70997;SDS011;58663;52.040;4.634;2022-10-31T14:11:17;45.53;;;21.17;;
70997;SDS011;58663;52.040;4.634;2022-10-31T14:13:46;46.17;;;22.73;;
70997;SDS011;58663;52.040;4.634;2022-10-31T14:16:23;47.22;;;21.30;;
70997;SDS011;58663;52.040;4.634;2022-10-31T14:18:51;44.92;;;22.10;;
70997;SDS011;58663;52.040;4.634;2022-10-31T14:23:49;43.25;;;22.60;;
70997;SDS011;58663;52.040;4.634;2022-10-31T14:50:50;44.70;;;22.75;;
70997;SDS011;58663;52.040;4.634;2022-10-31T14:53:24;47.60;;;22.92;;
70997;SDS011;58663;52.040;4.634;2022-10-31T14:55:53;45.20;;;21.38;;
70997;SDS011;58663;52.040;4.634;2022-10-31T14:58:21;49.17;;;21.58;;
70997;SDS011;58663;52.040;4.634;2022-10-31T15:00:50;44.58;;;21.90;;
70997;SDS011;58663;52.040;4.634;2022-10-31T15:03:22;42.30;;;21.30;;
70997;SDS011;58663;52.040;4.634;2022-10-31T15:05:58;42.25;;;21.35;;
70997;SDS011;58663;52.040;4.634;2022-10-31T15:08:47;42.60;;;20.58;;
70997;SDS011;58663;52.040;4.634;2022-10-31T15:11:19;48.15;;;20.50;;
70997;SDS011;58663;52.040;4.634;2022-10-31T15:16:21;49.17;;;23.77;;
70997;SDS011;58663;52.040;4.634;2022-10-31T15:18:50;52.95;;;22.02;;
70997;SDS011;58663;52.040;4.634;2022-10-31T15:21:17;45.70;;;21.63;;
70997;SDS011;58663;52.040;4.634;2022-10-31T15:23:45;47.53;;;23.38;;
70997;SDS011;58663;52.040;4.634;2022-10-31T15:26:15;49.90;;;23.25;;
70997;SDS011;58663;52.040;4.634;2022-10-31T15:28:45;47.03;;;22.00;;
70997;SDS011;58663;52.040;4.634;2022-10-31T15:31:15;53.45;;;22.60;;
70997;SDS011;58663;52.040;4.634;2022-10-31T15:33:42;51.13;;;23.02;;
70997;SDS011;58663;52.040;4.634;2022-10-31T15:36:21;44.78;;;22.63;;
70997;SDS011;58663;52.040;4.634;2022-10-31T15:38:48;45.92;;;22.67;;
70997;SDS011;58663;52.040;4.634;2022-10-31T15:41:28;51.30;;;22.23;;
70997;SDS011;58663;52.040;4.634;2022-10-31T15:46:20;46.03;;;23.05;;
70997;SDS011;58663;52.040;4.634;2022-10-31T15:48:46;48.50;;;22.30;;
70997;SDS011;58663;52.040;4.634;2022-10-31T15:51:12;53.55;;;22.67;;
70997;SDS011;58663;52.040;4.634;2022-10-31T15:53:59;48.53;;;22.52;;
70997;SDS011;58663;52.040;4.634;2022-10-31T15:56:25;46.13;;;22.50;;
70997;SDS011;58663;52.040;4.634;2022-10-31T15:58:53;48.70;;;21.30;;
70997;SDS011;58663;52.040;4.634;2022-10-31T16:01:23;49.05;;;22.33;;
70997;SDS011;58663;52.040;4.634;2022-10-31T16:04:03;54.10;;;23.10;;
70997;SDS011;58663;52.040;4.634;2022-10-31T16:06:37;53.10;;;23.80;;
70997;SDS011;58663;52.040;4.634;2022-10-31T16:09:03;46.53;;;21.85;;
70997;SDS011;58663;52.040;4.634;2022-10-31T16:14:17;46.78;;;23.23;;
70997;SDS011;58663;52.040;4.634;2022-10-31T16:16:48;50.42;;;22.15;;
70997;SDS011;58663;52.040;4.634;2022-10-31T16:19:21;53.80;;;23.25;;
70997;SDS011;58663;52.040;4.634;2022-10-31T16:21:47;49.75;;;21.98;;
70997;SDS011;58663;52.040;4.634;2022-10-31T16:26:41;51.05;;;24.40;;
70997;SDS011;58663;52.040;4.634;2022-10-31T16:31:51;48.33;;;22.48;;
70997;SDS011;58663;52.040;4.634;2022-10-31T16:34:18;53.55;;;23.75;;
70997;SDS011;58663;52.040;4.634;2022-10-31T16:36:45;50.28;;;23.67;;
70997;SDS011;58663;52.040;4.634;2022-10-31T16:39:11;51.70;;;23.40;;
70997;SDS011;58663;52.040;4.634;2022-10-31T16:41:38;47.80;;;23.58;;
70997;SDS011;58663;52.040;4.634;2022-10-31T16:44:06;62.05;;;24.30;;
70997;SDS011;58663;52.040;4.634;2022-10-31T16:46:39;55.58;;;23.35;;
70997;SDS011;58663;52.040;4.634;2022-10-31T16:49:07;45.22;;;22.92;;
70997;SDS011;58663;52.040;4.634;2022-10-31T16:51:33;49.97;;;21.83;;
70997;SDS011;58663;52.040;4.634;2022-10-31T16:53:59;43.95;;;22.23;;
70997;SDS011;58663;52.040;4.634;2022-10-31T16:56:27;44.63;;;20.70;;
70997;SDS011;58663;52.040;4.634;2022-10-31T16:58:53;43.45;;;20.00;;
70997;SDS011;58663;52.040;4.634;2022-10-31T17:01:19;44.42;;;20.27;;
70997;SDS011;58663;52.040;4.634;2022-10-31T17:03:44;43.25;;;20.30;;
70997;SDS011;58663;52.040;4.634;2022-10-31T17:06:13;38.72;;;18.75;;
70997;SDS011;58663;52.040;4.634;2022-10-31T17:08:39;38.20;;;18.38;;
70997;SDS011;58663;52.040;4.634;2022-10-31T17:11:04;43.00;;;18.73;;
70997;SDS011;58663;52.040;4.634;2022-10-31T17:13:30;36.78;;;18.40;;
70997;SDS011;58663;52.040;4.634;2022-10-31T17:15:57;33.00;;;16.77;;
70997;SDS011;58663;52.040;4.634;2022-10-31T17:18:23;33.85;;;17.48;;
70997;SDS011;58663;52.040;4.634;2022-10-31T17:20:50;38.13;;;17.23;;
70997;SDS011;58663;52.040;4.634;2022-10-31T17:23:16;42.17;;;19.75;;
70997;SDS011;58663;52.040;4.634;2022-10-31T17:25:41;36.50;;;17.95;;
70997;SDS011;58663;52.040;4.634;2022-10-31T17:28:10;34.90;;;17.33;;
70997;SDS011;58663;52.040;4.634;2022-10-31T17:30:37;44.45;;;18.23;;
70997;SDS011;58663;52.040;4.634;2022-10-31T17:33:03;37.50;;;17.23;;
70997;SDS011;58663;52.040;4.634;2022-10-31T17:35:29;38.10;;;19.27;;
70997;SDS011;58663;52.040;4.634;2022-10-31T17:37:54;39.92;;;19.25;;